sensor_id;sensor_type;location;lat;lon;timestamp;P1;durP1;ratioP1;P2;durP2;ratioP2
59024;SDS011;44806;48.008;13.666;2023-09-30T00:00:25;8.68;;;2.88;;
59024;SDS011;44806;48.008;13.666;2023-09-30T00:02:52;8.80;;;3.65;;
59024;SDS011;44806;48.008;13.666;2023-09-30T00:05:20;8.20;;;3.03;;
59024;SDS011;44806;48.008;13.666;2023-09-30T00:07:47;8.43;;;2.95;;
59024;SDS011;44806;48.008;13.666;2023-09-30T00:10:14;9.40;;;4.05;;
59024;SDS011;44806;48.008;13.666;2023-09-30T00:12:41;12.85;;;4.25;;
59024;SDS011;44806;48.008;13.666;2023-09-30T00:15:09;8.75;;;4.30;;
59024;SDS011;44806;48.008;13.666;2023-09-30T00:17:36;9.73;;;3.65;;
59024;SDS011;44806;48.008;13.666;2023-09-30T00:20:04;12.95;;;4.20;;
59024;SDS011;44806;48.008;13.666;2023-09-30T00:22:33;9.60;;;3.53;;
59024;SDS011;44806;48.008;13.666;2023-09-30T00:25:00;10.05;;;3.95;;
59024;SDS011;44806;48.008;13.666;2023-09-30T00:27:27;12.77;;;3.88;;
59024;SDS011;44806;48.008;13.666;2023-09-30T00:29:54;10.32;;;2.88;;
59024;SDS011;44806;48.008;13.666;2023-09-30T00:32:21;8.45;;;3.38;;
59024;SDS011;44806;48.008;13.666;2023-09-30T00:34:48;12.40;;;3.90;;
59024;SDS011;44806;48.008;13.666;2023-09-30T00:37:17;13.18;;;3.60;;
59024;SDS011;44806;48.008;13.666;2023-09-30T00:39:45;11.18;;;4.68;;
59024;SDS011;44806;48.008;13.666;2023-09-30T00:42:12;12.20;;;4.72;;
59024;SDS011;44806;48.008;13.666;2023-09-30T00:44:39;8.15;;;3.30;;
59024;SDS011;44806;48.008;13.666;2023-09-30T00:47:06;13.88;;;4.32;;
59024;SDS011;44806;48.008;13.666;2023-09-30T00:49:34;11.65;;;4.20;;
59024;SDS011;44806;48.008;13.666;2023-09-30T00:52:01;10.25;;;3.45;;
59024;SDS011;44806;48.008;13.666;2023-09-30T00:54:28;10.50;;;4.65;;
59024;SDS011;44806;48.008;13.666;2023-09-30T00:56:57;13.60;;;4.47;;
59024;SDS011;44806;48.008;13.666;2023-09-30T00:59:26;11.27;;;3.50;;
59024;SDS011;44806;48.008;13.666;2023-09-30T01:01:58;12.13;;;3.35;;
59024;SDS011;44806;48.008;13.666;2023-09-30T01:04:26;10.25;;;3.17;;
59024;SDS011;44806;48.008;13.666;2023-09-30T01:06:54;11.13;;;4.38;;
59024;SDS011;44806;48.008;13.666;2023-09-30T01:09:22;12.32;;;4.00;;
59024;SDS011;44806;48.008;13.666;2023-09-30T01:11:49;10.77;;;4.15;;
59024;SDS011;44806;48.008;13.666;2023-09-30T01:14:28;15.77;;;4.95;;
59024;SDS011;44806;48.008;13.666;2023-09-30T01:16:56;14.52;;;4.65;;
59024;SDS011;44806;48.008;13.666;2023-09-30T01:19:24;12.10;;;5.00;;
59024;SDS011;44806;48.008;13.666;2023-09-30T01:21:53;16.00;;;4.50;;
59024;SDS011;44806;48.008;13.666;2023-09-30T01:24:23;12.30;;;4.55;;
59024;SDS011;44806;48.008;13.666;2023-09-30T01:26:51;10.05;;;3.88;;
59024;SDS011;44806;48.008;13.666;2023-09-30T01:29:18;18.13;;;3.95;;
59024;SDS011;44806;48.008;13.666;2023-09-30T01:31:45;12.73;;;4.15;;
59024;SDS011;44806;48.008;13.666;2023-09-30T01:34:13;14.52;;;3.55;;
59024;SDS011;44806;48.008;13.666;2023-09-30T01:36:40;15.45;;;4.85;;
59024;SDS011;44806;48.008;13.666;2023-09-30T01:39:08;12.20;;;4.07;;
59024;SDS011;44806;48.008;13.666;2023-09-30T01:41:36;10.80;;;3.00;;
59024;SDS011;44806;48.008;13.666;2023-09-30T01:44:02;14.20;;;4.53;;
59024;SDS011;44806;48.008;13.666;2023-09-30T01:46:30;12.65;;;4.30;;
59024;SDS011;44806;48.008;13.666;2023-09-30T01:48:56;16.77;;;4.60;;
59024;SDS011;44806;48.008;13.666;2023-09-30T01:51:23;13.77;;;5.35;;
59024;SDS011;44806;48.008;13.666;2023-09-30T01:53:50;15.95;;;5.97;;
59024;SDS011;44806;48.008;13.666;2023-09-30T01:56:19;17.08;;;5.60;;
59024;SDS011;44806;48.008;13.666;2023-09-30T01:58:45;19.00;;;4.97;;
59024;SDS011;44806;48.008;13.666;2023-09-30T02:01:12;14.18;;;4.90;;
59024;SDS011;44806;48.008;13.666;2023-09-30T02:03:40;15.52;;;5.05;;
59024;SDS011;44806;48.008;13.666;2023-09-30T02:06:07;18.33;;;4.38;;
59024;SDS011;44806;48.008;13.666;2023-09-30T02:08:35;11.57;;;3.83;;
59024;SDS011;44806;48.008;13.666;2023-09-30T02:11:02;16.95;;;5.28;;
59024;SDS011;44806;48.008;13.666;2023-09-30T02:13:32;13.85;;;5.00;;
59024;SDS011;44806;48.008;13.666;2023-09-30T02:16:00;17.23;;;4.72;;
59024;SDS011;44806;48.008;13.666;2023-09-30T02:18:27;16.30;;;4.32;;
59024;SDS011;44806;48.008;13.666;2023-09-30T02:20:57;19.83;;;6.65;;
59024;SDS011;44806;48.008;13.666;2023-09-30T02:23:25;18.85;;;5.95;;
59024;SDS011;44806;48.008;13.666;2023-09-30T02:25:52;17.40;;;5.40;;
59024;SDS011;44806;48.008;13.666;2023-09-30T02:28:19;15.32;;;5.68;;
59024;SDS011;44806;48.008;13.666;2023-09-30T02:30:47;11.60;;;4.10;;
59024;SDS011;44806;48.008;13.666;2023-09-30T02:33:14;18.88;;;5.40;;
59024;SDS011;44806;48.008;13.666;2023-09-30T02:35:43;16.58;;;4.85;;
59024;SDS011;44806;48.008;13.666;2023-09-30T02:38:10;15.57;;;5.10;;
59024;SDS011;44806;48.008;13.666;2023-09-30T02:40:37;12.98;;;4.15;;
59024;SDS011;44806;48.008;13.666;2023-09-30T02:43:05;16.50;;;5.78;;
59024;SDS011;44806;48.008;13.666;2023-09-30T02:45:32;18.42;;;5.13;;
59024;SDS011;44806;48.008;13.666;2023-09-30T02:48:00;14.90;;;5.70;;
59024;SDS011;44806;48.008;13.666;2023-09-30T02:50:27;14.55;;;5.07;;
59024;SDS011;44806;48.008;13.666;2023-09-30T02:52:54;15.43;;;4.35;;
59024;SDS011;44806;48.008;13.666;2023-09-30T02:55:21;16.52;;;4.47;;
59024;SDS011;44806;48.008;13.666;2023-09-30T02:57:48;14.75;;;4.20;;
59024;SDS011;44806;48.008;13.666;2023-09-30T03:00:15;13.63;;;3.75;;
59024;SDS011;44806;48.008;13.666;2023-09-30T03:02:48;14.63;;;4.47;;
59024;SDS011;44806;48.008;13.666;2023-09-30T03:05:17;19.45;;;6.38;;
59024;SDS011;44806;48.008;13.666;2023-09-30T03:07:45;14.75;;;4.63;;
59024;SDS011;44806;48.008;13.666;2023-09-30T03:10:12;13.65;;;4.28;;
59024;SDS011;44806;48.008;13.666;2023-09-30T03:12:45;17.02;;;4.88;;
59024;SDS011;44806;48.008;13.666;2023-09-30T03:15:12;11.32;;;4.07;;
59024;SDS011;44806;48.008;13.666;2023-09-30T03:17:40;14.10;;;3.78;;
59024;SDS011;44806;48.008;13.666;2023-09-30T03:20:07;16.23;;;5.15;;
59024;SDS011;44806;48.008;13.666;2023-09-30T03:22:39;14.35;;;4.10;;
59024;SDS011;44806;48.008;13.666;2023-09-30T03:25:07;17.50;;;4.72;;
59024;SDS011;44806;48.008;13.666;2023-09-30T03:27:36;13.02;;;4.32;;
59024;SDS011;44806;48.008;13.666;2023-09-30T03:30:04;15.43;;;4.75;;
59024;SDS011;44806;48.008;13.666;2023-09-30T03:32:32;17.42;;;3.65;;
59024;SDS011;44806;48.008;13.666;2023-09-30T03:34:59;13.98;;;4.65;;
59024;SDS011;44806;48.008;13.666;2023-09-30T03:37:26;12.40;;;3.50;;
59024;SDS011;44806;48.008;13.666;2023-09-30T03:39:55;13.65;;;4.07;;
59024;SDS011;44806;48.008;13.666;2023-09-30T03:42:23;17.77;;;4.07;;
59024;SDS011;44806;48.008;13.666;2023-09-30T03:44:50;13.40;;;3.67;;
59024;SDS011;44806;48.008;13.666;2023-09-30T03:47:18;14.15;;;4.95;;
59024;SDS011;44806;48.008;13.666;2023-09-30T03:49:45;12.70;;;4.45;;
59024;SDS011;44806;48.008;13.666;2023-09-30T03:52:13;15.43;;;3.92;;
59024;SDS011;44806;48.008;13.666;2023-09-30T03:54:40;12.32;;;3.65;;
59024;SDS011;44806;48.008;13.666;2023-09-30T03:57:09;13.32;;;4.18;;
59024;SDS011;44806;48.008;13.666;2023-09-30T03:59:37;14.35;;;3.45;;
59024;SDS011;44806;48.008;13.666;2023-09-30T04:02:04;12.93;;;4.53;;
59024;SDS011;44806;48.008;13.666;2023-09-30T04:04:33;11.25;;;3.28;;
59024;SDS011;44806;48.008;13.666;2023-09-30T04:07:02;16.77;;;4.40;;
59024;SDS011;44806;48.008;13.666;2023-09-30T04:09:35;13.50;;;3.63;;
59024;SDS011;44806;48.008;13.666;2023-09-30T04:12:02;16.10;;;4.28;;
59024;SDS011;44806;48.008;13.666;2023-09-30T04:14:30;11.57;;;3.88;;
59024;SDS011;44806;48.008;13.666;2023-09-30T04:16:57;11.50;;;3.60;;
59024;SDS011;44806;48.008;13.666;2023-09-30T04:19:24;13.48;;;4.82;;
59024;SDS011;44806;48.008;13.666;2023-09-30T04:21:51;14.63;;;4.53;;
59024;SDS011;44806;48.008;13.666;2023-09-30T04:24:18;14.63;;;3.35;;
59024;SDS011;44806;48.008;13.666;2023-09-30T04:26:46;12.82;;;2.90;;
59024;SDS011;44806;48.008;13.666;2023-09-30T04:29:15;11.13;;;3.10;;
59024;SDS011;44806;48.008;13.666;2023-09-30T04:31:43;12.57;;;3.67;;
59024;SDS011;44806;48.008;13.666;2023-09-30T04:34:10;12.05;;;4.28;;
59024;SDS011;44806;48.008;13.666;2023-09-30T04:36:38;14.85;;;3.95;;
59024;SDS011;44806;48.008;13.666;2023-09-30T04:39:05;13.60;;;3.63;;
59024;SDS011;44806;48.008;13.666;2023-09-30T04:41:32;15.00;;;3.90;;
59024;SDS011;44806;48.008;13.666;2023-09-30T04:43:59;14.73;;;3.88;;
59024;SDS011;44806;48.008;13.666;2023-09-30T04:46:26;16.23;;;3.90;;
59024;SDS011;44806;48.008;13.666;2023-09-30T04:48:54;11.68;;;3.72;;
59024;SDS011;44806;48.008;13.666;2023-09-30T04:51:21;11.55;;;3.08;;
59024;SDS011;44806;48.008;13.666;2023-09-30T04:53:50;13.77;;;3.58;;
59024;SDS011;44806;48.008;13.666;2023-09-30T04:56:19;12.80;;;4.15;;
59024;SDS011;44806;48.008;13.666;2023-09-30T04:58:46;13.10;;;3.38;;
59024;SDS011;44806;48.008;13.666;2023-09-30T05:01:13;12.50;;;3.25;;
59024;SDS011;44806;48.008;13.666;2023-09-30T05:03:40;12.30;;;3.80;;
59024;SDS011;44806;48.008;13.666;2023-09-30T05:06:10;12.90;;;3.55;;
59024;SDS011;44806;48.008;13.666;2023-09-30T05:08:37;11.65;;;3.72;;
59024;SDS011;44806;48.008;13.666;2023-09-30T05:11:04;11.02;;;3.65;;
59024;SDS011;44806;48.008;13.666;2023-09-30T05:13:31;12.88;;;2.88;;
59024;SDS011;44806;48.008;13.666;2023-09-30T05:15:59;11.82;;;2.78;;
59024;SDS011;44806;48.008;13.666;2023-09-30T05:18:26;13.10;;;3.13;;
59024;SDS011;44806;48.008;13.666;2023-09-30T05:20:53;12.65;;;3.90;;
59024;SDS011;44806;48.008;13.666;2023-09-30T05:23:21;13.27;;;3.92;;
59024;SDS011;44806;48.008;13.666;2023-09-30T05:25:49;10.65;;;3.15;;
59024;SDS011;44806;48.008;13.666;2023-09-30T05:28:16;9.50;;;3.65;;
59024;SDS011;44806;48.008;13.666;2023-09-30T05:30:43;12.18;;;3.72;;
59024;SDS011;44806;48.008;13.666;2023-09-30T05:33:10;9.18;;;2.95;;
59024;SDS011;44806;48.008;13.666;2023-09-30T05:35:39;12.43;;;3.58;;
59024;SDS011;44806;48.008;13.666;2023-09-30T05:38:06;13.45;;;2.60;;
59024;SDS011;44806;48.008;13.666;2023-09-30T05:40:35;15.55;;;4.15;;
59024;SDS011;44806;48.008;13.666;2023-09-30T05:43:02;11.48;;;3.53;;
59024;SDS011;44806;48.008;13.666;2023-09-30T05:45:31;10.23;;;3.08;;
59024;SDS011;44806;48.008;13.666;2023-09-30T05:48:01;11.85;;;2.78;;
59024;SDS011;44806;48.008;13.666;2023-09-30T05:50:32;9.45;;;2.75;;
59024;SDS011;44806;48.008;13.666;2023-09-30T05:52:59;8.05;;;2.88;;
59024;SDS011;44806;48.008;13.666;2023-09-30T05:55:26;11.57;;;2.97;;
59024;SDS011;44806;48.008;13.666;2023-09-30T05:57:55;5.88;;;1.92;;
59024;SDS011;44806;48.008;13.666;2023-09-30T06:00:22;8.68;;;2.45;;
59024;SDS011;44806;48.008;13.666;2023-09-30T06:02:53;11.55;;;2.83;;
59024;SDS011;44806;48.008;13.666;2023-09-30T06:05:20;14.77;;;3.63;;
59024;SDS011;44806;48.008;13.666;2023-09-30T06:07:48;10.32;;;2.47;;
59024;SDS011;44806;48.008;13.666;2023-09-30T06:10:15;9.40;;;2.88;;
59024;SDS011;44806;48.008;13.666;2023-09-30T06:12:43;10.18;;;3.05;;
59024;SDS011;44806;48.008;13.666;2023-09-30T06:15:13;8.73;;;2.40;;
59024;SDS011;44806;48.008;13.666;2023-09-30T06:17:46;13.00;;;3.15;;
59024;SDS011;44806;48.008;13.666;2023-09-30T06:20:13;11.90;;;3.92;;
59024;SDS011;44806;48.008;13.666;2023-09-30T06:22:42;11.77;;;4.13;;
59024;SDS011;44806;48.008;13.666;2023-09-30T06:25:10;12.35;;;3.90;;
59024;SDS011;44806;48.008;13.666;2023-09-30T06:27:37;17.50;;;4.00;;
59024;SDS011;44806;48.008;13.666;2023-09-30T06:30:05;8.80;;;3.08;;
59024;SDS011;44806;48.008;13.666;2023-09-30T06:32:35;14.63;;;4.00;;
59024;SDS011;44806;48.008;13.666;2023-09-30T06:35:02;14.70;;;3.88;;
59024;SDS011;44806;48.008;13.666;2023-09-30T06:37:31;14.35;;;4.55;;
59024;SDS011;44806;48.008;13.666;2023-09-30T06:39:58;13.68;;;3.72;;
59024;SDS011;44806;48.008;13.666;2023-09-30T06:42:28;10.90;;;3.75;;
59024;SDS011;44806;48.008;13.666;2023-09-30T06:44:56;13.63;;;4.07;;
59024;SDS011;44806;48.008;13.666;2023-09-30T06:47:22;10.85;;;3.33;;
59024;SDS011;44806;48.008;13.666;2023-09-30T06:49:52;9.82;;;3.53;;
59024;SDS011;44806;48.008;13.666;2023-09-30T06:52:19;14.38;;;4.53;;
59024;SDS011;44806;48.008;13.666;2023-09-30T06:54:46;12.07;;;4.10;;
59024;SDS011;44806;48.008;13.666;2023-09-30T06:57:13;13.80;;;4.38;;
59024;SDS011;44806;48.008;13.666;2023-09-30T06:59:39;15.80;;;4.18;;
59024;SDS011;44806;48.008;13.666;2023-09-30T07:02:06;12.50;;;4.18;;
59024;SDS011;44806;48.008;13.666;2023-09-30T07:04:33;8.95;;;2.58;;
59024;SDS011;44806;48.008;13.666;2023-09-30T07:07:01;17.25;;;3.72;;
59024;SDS011;44806;48.008;13.666;2023-09-30T07:09:29;12.20;;;4.28;;
59024;SDS011;44806;48.008;13.666;2023-09-30T07:11:56;13.43;;;3.83;;
59024;SDS011;44806;48.008;13.666;2023-09-30T07:14:23;16.42;;;4.03;;
59024;SDS011;44806;48.008;13.666;2023-09-30T07:16:50;10.48;;;3.38;;
59024;SDS011;44806;48.008;13.666;2023-09-30T07:19:16;11.50;;;3.53;;
59024;SDS011;44806;48.008;13.666;2023-09-30T07:21:43;15.25;;;4.43;;
59024;SDS011;44806;48.008;13.666;2023-09-30T07:24:12;15.02;;;4.13;;
59024;SDS011;44806;48.008;13.666;2023-09-30T07:26:40;12.15;;;3.17;;
59024;SDS011;44806;48.008;13.666;2023-09-30T07:29:06;13.23;;;4.38;;
59024;SDS011;44806;48.008;13.666;2023-09-30T07:31:35;11.80;;;3.85;;
59024;SDS011;44806;48.008;13.666;2023-09-30T07:34:02;10.98;;;2.92;;
59024;SDS011;44806;48.008;13.666;2023-09-30T07:36:29;13.95;;;3.72;;
59024;SDS011;44806;48.008;13.666;2023-09-30T07:38:56;11.00;;;3.80;;
59024;SDS011;44806;48.008;13.666;2023-09-30T07:41:27;13.15;;;2.75;;
59024;SDS011;44806;48.008;13.666;2023-09-30T07:43:54;11.77;;;3.58;;
59024;SDS011;44806;48.008;13.666;2023-09-30T07:46:20;10.35;;;2.92;;
59024;SDS011;44806;48.008;13.666;2023-09-30T07:48:47;10.15;;;3.33;;
59024;SDS011;44806;48.008;13.666;2023-09-30T07:51:14;9.98;;;3.58;;
59024;SDS011;44806;48.008;13.666;2023-09-30T07:53:41;9.88;;;3.45;;
59024;SDS011;44806;48.008;13.666;2023-09-30T07:56:08;11.77;;;3.22;;
59024;SDS011;44806;48.008;13.666;2023-09-30T07:58:36;10.25;;;3.50;;
59024;SDS011;44806;48.008;13.666;2023-09-30T08:01:03;10.88;;;3.00;;
59024;SDS011;44806;48.008;13.666;2023-09-30T08:03:30;12.70;;;4.05;;
59024;SDS011;44806;48.008;13.666;2023-09-30T08:05:57;12.23;;;3.92;;
59024;SDS011;44806;48.008;13.666;2023-09-30T08:08:24;14.63;;;3.90;;
59024;SDS011;44806;48.008;13.666;2023-09-30T08:10:51;12.38;;;3.10;;
59024;SDS011;44806;48.008;13.666;2023-09-30T08:13:20;11.57;;;3.53;;
59024;SDS011;44806;48.008;13.666;2023-09-30T08:15:49;12.93;;;3.88;;
59024;SDS011;44806;48.008;13.666;2023-09-30T08:18:18;11.43;;;2.88;;
59024;SDS011;44806;48.008;13.666;2023-09-30T08:20:45;10.02;;;3.78;;
59024;SDS011;44806;48.008;13.666;2023-09-30T08:23:12;6.78;;;2.28;;
59024;SDS011;44806;48.008;13.666;2023-09-30T08:25:39;8.50;;;2.58;;
59024;SDS011;44806;48.008;13.666;2023-09-30T08:28:06;11.60;;;3.83;;
59024;SDS011;44806;48.008;13.666;2023-09-30T08:30:34;11.13;;;3.17;;
59024;SDS011;44806;48.008;13.666;2023-09-30T08:33:03;11.25;;;3.50;;
59024;SDS011;44806;48.008;13.666;2023-09-30T08:35:31;12.38;;;4.20;;
59024;SDS011;44806;48.008;13.666;2023-09-30T08:38:01;11.65;;;3.05;;
59024;SDS011;44806;48.008;13.666;2023-09-30T08:40:29;11.23;;;3.35;;
59024;SDS011;44806;48.008;13.666;2023-09-30T08:42:56;8.18;;;2.33;;
59024;SDS011;44806;48.008;13.666;2023-09-30T08:45:24;11.30;;;3.85;;
59024;SDS011;44806;48.008;13.666;2023-09-30T08:47:55;13.43;;;3.65;;
59024;SDS011;44806;48.008;13.666;2023-09-30T08:50:23;16.48;;;3.80;;
59024;SDS011;44806;48.008;13.666;2023-09-30T08:52:51;11.15;;;3.33;;
59024;SDS011;44806;48.008;13.666;2023-09-30T08:55:19;9.20;;;2.80;;
59024;SDS011;44806;48.008;13.666;2023-09-30T08:57:46;11.07;;;3.10;;
59024;SDS011;44806;48.008;13.666;2023-09-30T09:00:14;11.88;;;3.58;;
59024;SDS011;44806;48.008;13.666;2023-09-30T09:02:41;13.93;;;3.97;;
59024;SDS011;44806;48.008;13.666;2023-09-30T09:05:09;11.38;;;3.63;;
59024;SDS011;44806;48.008;13.666;2023-09-30T09:07:37;11.68;;;3.67;;
59024;SDS011;44806;48.008;13.666;2023-09-30T09:10:05;11.30;;;2.80;;
59024;SDS011;44806;48.008;13.666;2023-09-30T09:12:33;8.77;;;2.67;;
59024;SDS011;44806;48.008;13.666;2023-09-30T09:15:01;10.50;;;3.22;;
59024;SDS011;44806;48.008;13.666;2023-09-30T09:17:39;10.40;;;2.80;;
59024;SDS011;44806;48.008;13.666;2023-09-30T09:20:08;13.43;;;4.28;;
59024;SDS011;44806;48.008;13.666;2023-09-30T09:22:41;13.45;;;3.67;;
59024;SDS011;44806;48.008;13.666;2023-09-30T09:25:09;14.95;;;4.78;;
59024;SDS011;44806;48.008;13.666;2023-09-30T09:27:37;12.07;;;4.10;;
59024;SDS011;44806;48.008;13.666;2023-09-30T09:30:17;12.07;;;4.05;;
59024;SDS011;44806;48.008;13.666;2023-09-30T09:32:56;13.55;;;5.18;;
59024;SDS011;44806;48.008;13.666;2023-09-30T09:35:25;18.30;;;4.60;;
59024;SDS011;44806;48.008;13.666;2023-09-30T09:37:56;17.05;;;4.85;;
59024;SDS011;44806;48.008;13.666;2023-09-30T09:40:24;17.00;;;4.90;;
59024;SDS011;44806;48.008;13.666;2023-09-30T09:42:53;10.90;;;3.47;;
59024;SDS011;44806;48.008;13.666;2023-09-30T09:45:21;14.77;;;4.78;;
59024;SDS011;44806;48.008;13.666;2023-09-30T09:47:49;13.45;;;3.58;;
59024;SDS011;44806;48.008;13.666;2023-09-30T09:50:18;15.23;;;5.15;;
59024;SDS011;44806;48.008;13.666;2023-09-30T09:52:46;12.95;;;3.85;;
59024;SDS011;44806;48.008;13.666;2023-09-30T09:55:17;16.33;;;4.85;;
59024;SDS011;44806;48.008;13.666;2023-09-30T09:57:45;14.98;;;4.75;;
59024;SDS011;44806;48.008;13.666;2023-09-30T10:00:13;13.70;;;3.85;;
59024;SDS011;44806;48.008;13.666;2023-09-30T10:02:43;12.25;;;4.07;;
59024;SDS011;44806;48.008;13.666;2023-09-30T10:05:11;14.57;;;4.28;;
59024;SDS011;44806;48.008;13.666;2023-09-30T10:07:40;14.30;;;4.00;;
59024;SDS011;44806;48.008;13.666;2023-09-30T10:10:14;14.75;;;5.38;;
59024;SDS011;44806;48.008;13.666;2023-09-30T10:12:45;13.77;;;4.63;;
59024;SDS011;44806;48.008;13.666;2023-09-30T10:18:09;14.60;;;5.20;;
59024;SDS011;44806;48.008;13.666;2023-09-30T10:20:37;20.02;;;4.70;;
59024;SDS011;44806;48.008;13.666;2023-09-30T10:23:17;16.35;;;5.80;;
59024;SDS011;44806;48.008;13.666;2023-09-30T10:25:51;16.10;;;6.13;;
59024;SDS011;44806;48.008;13.666;2023-09-30T10:28:32;18.05;;;5.53;;
59024;SDS011;44806;48.008;13.666;2023-09-30T10:31:12;16.15;;;5.97;;
59024;SDS011;44806;48.008;13.666;2023-09-30T10:36:46;15.88;;;5.35;;
59024;SDS011;44806;48.008;13.666;2023-09-30T10:39:16;20.25;;;5.70;;
59024;SDS011;44806;48.008;13.666;2023-09-30T10:51:12;14.05;;;5.72;;
59024;SDS011;44806;48.008;13.666;2023-09-30T10:53:46;19.73;;;7.75;;
59024;SDS011;44806;48.008;13.666;2023-09-30T10:56:16;21.13;;;6.95;;
59024;SDS011;44806;48.008;13.666;2023-09-30T10:58:46;17.00;;;5.95;;
59024;SDS011;44806;48.008;13.666;2023-09-30T11:01:14;15.95;;;5.60;;
59024;SDS011;44806;48.008;13.666;2023-09-30T11:03:42;19.63;;;5.93;;
59024;SDS011;44806;48.008;13.666;2023-09-30T11:06:11;16.45;;;5.90;;
59024;SDS011;44806;48.008;13.666;2023-09-30T11:08:44;19.50;;;5.70;;
59024;SDS011;44806;48.008;13.666;2023-09-30T11:11:12;16.00;;;6.22;;
59024;SDS011;44806;48.008;13.666;2023-09-30T11:13:40;18.70;;;6.13;;
59024;SDS011;44806;48.008;13.666;2023-09-30T11:16:08;15.15;;;6.25;;
59024;SDS011;44806;48.008;13.666;2023-09-30T11:18:35;20.85;;;6.72;;
59024;SDS011;44806;48.008;13.666;2023-09-30T11:21:04;16.98;;;6.28;;
59024;SDS011;44806;48.008;13.666;2023-09-30T11:23:33;19.58;;;6.82;;
59024;SDS011;44806;48.008;13.666;2023-09-30T11:26:01;21.27;;;7.22;;
59024;SDS011;44806;48.008;13.666;2023-09-30T11:28:35;21.40;;;7.43;;
59024;SDS011;44806;48.008;13.666;2023-09-30T11:31:06;21.80;;;7.30;;
59024;SDS011;44806;48.008;13.666;2023-09-30T11:33:52;21.77;;;7.15;;
59024;SDS011;44806;48.008;13.666;2023-09-30T11:36:22;20.65;;;6.90;;
59024;SDS011;44806;48.008;13.666;2023-09-30T11:38:50;23.38;;;7.72;;
59024;SDS011;44806;48.008;13.666;2023-09-30T11:41:18;18.13;;;6.85;;
59024;SDS011;44806;48.008;13.666;2023-09-30T11:44:01;22.08;;;7.47;;
59024;SDS011;44806;48.008;13.666;2023-09-30T11:46:46;23.20;;;8.27;;
59024;SDS011;44806;48.008;13.666;2023-09-30T11:49:24;19.73;;;7.85;;
59024;SDS011;44806;48.008;13.666;2023-09-30T11:51:52;20.20;;;7.40;;
59024;SDS011;44806;48.008;13.666;2023-09-30T11:54:19;17.23;;;6.38;;
59024;SDS011;44806;48.008;13.666;2023-09-30T11:56:47;16.98;;;7.00;;
59024;SDS011;44806;48.008;13.666;2023-09-30T11:59:15;20.63;;;7.18;;
59024;SDS011;44806;48.008;13.666;2023-09-30T12:01:46;19.92;;;7.75;;
59024;SDS011;44806;48.008;13.666;2023-09-30T12:04:13;22.48;;;7.40;;
59024;SDS011;44806;48.008;13.666;2023-09-30T12:06:42;23.08;;;8.13;;
59024;SDS011;44806;48.008;13.666;2023-09-30T12:09:09;22.73;;;8.10;;
59024;SDS011;44806;48.008;13.666;2023-09-30T12:11:38;21.52;;;7.90;;
59024;SDS011;44806;48.008;13.666;2023-09-30T12:14:08;22.10;;;8.02;;
59024;SDS011;44806;48.008;13.666;2023-09-30T12:16:35;22.85;;;8.48;;
59024;SDS011;44806;48.008;13.666;2023-09-30T12:19:04;21.13;;;7.95;;
59024;SDS011;44806;48.008;13.666;2023-09-30T12:21:31;28.13;;;9.32;;
59024;SDS011;44806;48.008;13.666;2023-09-30T12:23:59;28.80;;;9.32;;
59024;SDS011;44806;48.008;13.666;2023-09-30T12:26:26;24.38;;;8.95;;
59024;SDS011;44806;48.008;13.666;2023-09-30T12:28:53;22.13;;;8.02;;
59024;SDS011;44806;48.008;13.666;2023-09-30T12:31:21;25.15;;;9.68;;
59024;SDS011;44806;48.008;13.666;2023-09-30T12:33:48;23.25;;;9.40;;
59024;SDS011;44806;48.008;13.666;2023-09-30T12:36:17;26.63;;;9.65;;
59024;SDS011;44806;48.008;13.666;2023-09-30T12:38:44;26.75;;;9.75;;
59024;SDS011;44806;48.008;13.666;2023-09-30T12:41:12;25.75;;;9.32;;
59024;SDS011;44806;48.008;13.666;2023-09-30T12:43:39;24.65;;;9.43;;
59024;SDS011;44806;48.008;13.666;2023-09-30T12:46:07;27.98;;;9.02;;
59024;SDS011;44806;48.008;13.666;2023-09-30T12:48:34;25.02;;;9.60;;
59024;SDS011;44806;48.008;13.666;2023-09-30T12:51:03;29.95;;;11.07;;
59024;SDS011;44806;48.008;13.666;2023-09-30T12:53:33;26.77;;;8.85;;
59024;SDS011;44806;48.008;13.666;2023-09-30T12:56:00;27.17;;;9.60;;
59024;SDS011;44806;48.008;13.666;2023-09-30T12:58:27;28.95;;;10.23;;
59024;SDS011;44806;48.008;13.666;2023-09-30T13:00:54;29.58;;;10.40;;
59024;SDS011;44806;48.008;13.666;2023-09-30T13:03:21;22.70;;;9.38;;
59024;SDS011;44806;48.008;13.666;2023-09-30T13:05:48;30.92;;;10.40;;
59024;SDS011;44806;48.008;13.666;2023-09-30T13:08:15;26.48;;;9.00;;
59024;SDS011;44806;48.008;13.666;2023-09-30T13:10:44;25.75;;;9.73;;
59024;SDS011;44806;48.008;13.666;2023-09-30T13:13:11;24.92;;;10.30;;
59024;SDS011;44806;48.008;13.666;2023-09-30T13:15:38;25.02;;;9.43;;
59024;SDS011;44806;48.008;13.666;2023-09-30T13:18:06;26.38;;;10.25;;
59024;SDS011;44806;48.008;13.666;2023-09-30T13:20:33;23.40;;;9.55;;
59024;SDS011;44806;48.008;13.666;2023-09-30T13:23:00;25.13;;;9.10;;
59024;SDS011;44806;48.008;13.666;2023-09-30T13:25:28;22.90;;;8.00;;
59024;SDS011;44806;48.008;13.666;2023-09-30T13:27:56;27.30;;;9.50;;
59024;SDS011;44806;48.008;13.666;2023-09-30T13:30:23;23.77;;;9.52;;
59024;SDS011;44806;48.008;13.666;2023-09-30T13:32:50;21.63;;;8.23;;
59024;SDS011;44806;48.008;13.666;2023-09-30T13:35:17;28.20;;;9.65;;
59024;SDS011;44806;48.008;13.666;2023-09-30T13:37:44;27.88;;;9.27;;
59024;SDS011;44806;48.008;13.666;2023-09-30T13:40:12;26.95;;;9.63;;
59024;SDS011;44806;48.008;13.666;2023-09-30T13:42:39;30.90;;;10.55;;
59024;SDS011;44806;48.008;13.666;2023-09-30T13:45:09;24.40;;;9.10;;
59024;SDS011;44806;48.008;13.666;2023-09-30T13:47:36;26.15;;;9.48;;
59024;SDS011;44806;48.008;13.666;2023-09-30T13:50:04;26.70;;;9.43;;
59024;SDS011;44806;48.008;13.666;2023-09-30T13:52:32;23.70;;;8.63;;
59024;SDS011;44806;48.008;13.666;2023-09-30T13:54:59;21.58;;;7.65;;
59024;SDS011;44806;48.008;13.666;2023-09-30T13:57:27;24.33;;;8.75;;
59024;SDS011;44806;48.008;13.666;2023-09-30T13:59:54;22.55;;;7.72;;
59024;SDS011;44806;48.008;13.666;2023-09-30T14:02:23;21.42;;;8.20;;
59024;SDS011;44806;48.008;13.666;2023-09-30T14:04:50;22.30;;;8.60;;
59024;SDS011;44806;48.008;13.666;2023-09-30T14:07:18;23.42;;;8.15;;
59024;SDS011;44806;48.008;13.666;2023-09-30T14:09:45;26.58;;;9.43;;
59024;SDS011;44806;48.008;13.666;2023-09-30T14:12:12;25.02;;;9.32;;
59024;SDS011;44806;48.008;13.666;2023-09-30T14:14:39;24.15;;;9.20;;
59024;SDS011;44806;48.008;13.666;2023-09-30T14:17:06;23.30;;;9.10;;
59024;SDS011;44806;48.008;13.666;2023-09-30T14:19:37;27.45;;;9.15;;
59024;SDS011;44806;48.008;13.666;2023-09-30T14:22:07;26.15;;;9.27;;
59024;SDS011;44806;48.008;13.666;2023-09-30T14:24:34;24.67;;;9.75;;
59024;SDS011;44806;48.008;13.666;2023-09-30T14:27:02;25.98;;;10.07;;
59024;SDS011;44806;48.008;13.666;2023-09-30T14:29:29;25.60;;;9.60;;
59024;SDS011;44806;48.008;13.666;2023-09-30T14:31:57;23.60;;;9.63;;
59024;SDS011;44806;48.008;13.666;2023-09-30T14:34:24;22.52;;;8.48;;
59024;SDS011;44806;48.008;13.666;2023-09-30T14:36:52;22.80;;;8.80;;
59024;SDS011;44806;48.008;13.666;2023-09-30T14:39:20;23.50;;;8.80;;
59024;SDS011;44806;48.008;13.666;2023-09-30T14:41:47;22.77;;;8.27;;
59024;SDS011;44806;48.008;13.666;2023-09-30T14:44:14;27.02;;;8.60;;